Time;durP1;ratioP1;P1;durP2;ratioP2;P2;SDS_P1;SDS_P2;PMS_P1;PMS_P2;Temp;Humidity;BMP_temperature;BMP_pressure;BME280_temperature;BME280_humidity;BME280_pressure;Samples;Min_cycle;Max_cycle;Signal;HPM_P1;HPM_P2
2021/04/02 00:00:53;;;;;;;17.90;8.38;;;;;;;;;;5018171;28;20112;-69
2021/04/02 00:03:38;;;;;;;14.82;7.70;;;;;;;;;;5035915;28;20116;-69
2021/04/02 00:06:04;;;;;;;14.65;8.32;;;;;;;;;;5036001;28;20033;-69
2021/04/02 00:08:30;;;;;;;17.20;8.55;;;;;;;;;;5018038;28;20036;-69
2021/04/02 00:10:59;;;;;;;17.60;8.85;;;;;;;;;;5035622;28;20051;-69
2021/04/02 00:13:27;;;;;;;17.88;8.55;;;;;;;;;;5035561;28;20038;-69
2021/04/02 00:15:54;;;;;;;18.88;8.45;;;;;;;;;;5035577;28;20029;-69
2021/04/02 00:18:20;;;;;;;18.20;8.50;;;;;;;;;;5035588;28;20541;-69
2021/04/02 00:20:45;;;;;;;19.05;7.65;;;;;;;;;;5035344;28;20128;-69
2021/04/02 00:23:11;;;;;;;16.67;8.32;;;;;;;;;;5035405;28;20110;-69
2021/04/02 00:25:37;;;;;;;18.02;7.63;;;;;;;;;;5017762;28;20520;-69
2021/04/02 00:28:06;;;;;;;16.55;8.00;;;;;;;;;;5035408;28;20029;-69
2021/04/02 00:30:38;;;;;;;13.48;6.80;;;;;;;;;;5035335;28;20037;-69
2021/04/02 00:33:04;;;;;;;17.55;7.65;;;;;;;;;;5035203;28;20030;-69
2021/04/02 00:35:29;;;;;;;12.77;6.63;;;;;;;;;;5035262;28;20018;-69
2021/04/02 00:37:55;;;;;;;12.88;6.25;;;;;;;;;;5035296;28;20033;-69
2021/04/02 00:40:25;;;;;;;11.75;6.20;;;;;;;;;;5035123;28;20413;-69
2021/04/02 00:42:51;;;;;;;;;;;;;;;;;;5035706;28;20053;-69
2021/04/02 00:45:17;;;;;;;10.40;6.28;;;;;;;;;;5035030;28;19955;-69
2021/04/02 00:47:43;;;;;;;11.60;5.95;;;;;;;;;;5034977;28;20029;-69
2021/04/02 00:50:16;;;;;;;15.77;7.32;;;;;;;;;;5034504;28;20036;-68
2021/04/02 00:52:41;;;;;;;13.82;6.53;;;;;;;;;;5050215;28;20052;-69
2021/04/02 00:55:08;;;;;;;13.38;7.45;;;;;;;;;;5050159;28;20021;-69
2021/04/02 00:57:33;;;;;;;13.65;6.82;;;;;;;;;;5017051;28;20539;-69
2021/04/02 00:59:59;;;;;;;12.48;6.22;;;;;;;;;;5034776;28;20021;-69
2021/04/02 01:02:26;;;;;;;13.85;6.70;;;;;;;;;;5017009;28;20022;-69
2021/04/02 01:04:51;;;;;;;11.38;6.32;;;;;;;;;;5034292;28;20022;-69
2021/04/02 01:07:17;;;;;;;11.63;6.55;;;;;;;;;;5016276;28;20172;-69
2021/04/02 01:09:43;;;;;;;11.57;6.70;;;;;;;;;;5034521;28;20028;-69
2021/04/02 01:12:08;;;;;;;17.88;7.18;;;;;;;;;;5033279;28;20041;-69
2021/04/02 01:14:34;;;;;;;12.88;7.15;;;;;;;;;;5016585;28;20025;-69
2021/04/02 01:16:59;;;;;;;15.55;7.05;;;;;;;;;;5034424;28;20424;-69
2021/04/02 01:19:31;;;;;;;13.48;6.72;;;;;;;;;;5016315;28;20021;-69
2021/04/02 01:21:58;;;;;;;11.18;6.88;;;;;;;;;;5016723;28;20029;-69
2021/04/02 01:24:43;;;;;;;14.10;6.75;;;;;;;;;;5016499;28;20025;-69
2021/04/02 01:27:31;;;;;;;16.40;6.75;;;;;;;;;;5034282;28;20083;-69
2021/04/02 01:30:05;;;;;;;14.18;7.57;;;;;;;;;;5034339;28;20397;-69
2021/04/02 01:32:35;;;;;;;13.93;7.13;;;;;;;;;;5016494;28;20473;-69
2021/04/02 01:35:11;;;;;;;10.57;7.25;;;;;;;;;;5016318;28;20037;-69
2021/04/02 01:37:42;;;;;;;15.93;7.45;;;;;;;;;;5016412;28;20029;-68
2021/04/02 01:40:09;;;;;;;14.75;7.40;;;;;;;;;;5034059;28;20026;-69
2021/04/02 01:42:37;;;;;;;17.45;8.88;;;;;;;;;;5016367;28;20112;-69
2021/04/02 01:45:05;;;;;;;19.70;9.38;;;;;;;;;;5016137;28;20036;-68
2021/04/02 01:47:32;;;;;;;17.15;8.77;;;;;;;;;;5016526;28;20045;-69
2021/04/02 01:49:59;;;;;;;16.52;9.32;;;;;;;;;;5032329;28;20485;-69
2021/04/02 01:52:26;;;;;;;17.58;9.65;;;;;;;;;;5016111;28;20131;-69
2021/04/02 01:54:53;;;;;;;16.25;10.48;;;;;;;;;;5015932;28;20440;-68
2021/04/02 01:57:18;;;;;;;16.52;10.45;;;;;;;;;;5048984;28;20485;-68
2021/04/02 01:59:48;;;;;;;19.65;12.07;;;;;;;;;;5015869;28;20532;-68
2021/04/02 02:02:17;;;;;;;18.67;11.45;;;;;;;;;;5016236;28;20021;-68
2021/04/02 02:04:45;;;;;;;22.40;12.18;;;;;;;;;;5015870;28;20036;-68
2021/04/02 02:07:11;;;;;;;21.98;12.15;;;;;;;;;;5015801;28;20049;-68
2021/04/02 02:09:47;;;;;;;21.50;12.70;;;;;;;;;;5015712;28;20035;-69
2021/04/02 02:12:24;;;;;;;28.73;14.93;;;;;;;;;;5048881;28;20052;-68
2021/04/02 02:14:54;;;;;;;20.77;13.75;;;;;;;;;;5015619;28;20064;-68
2021/04/02 02:17:29;;;;;;;29.65;16.48;;;;;;;;;;5000378;28;20549;-68
2021/04/02 02:19:56;;;;;;;27.95;17.25;;;;;;;;;;5015123;28;20060;-68
2021/04/02 02:22:22;;;;;;;27.15;17.48;;;;;;;;;;5033300;28;20029;-69
2021/04/02 02:25:01;;;;;;;33.70;21.40;;;;;;;;;;5048618;28;20128;-68
2021/04/02 02:27:27;;;;;;;32.00;21.95;;;;;;;;;;5048497;28;20034;-68
2021/04/02 02:29:55;;;;;;;37.22;23.27;;;;;;;;;;5031720;28;20116;-68
2021/04/02 02:32:21;;;;;;;27.63;20.45;;;;;;;;;;5048671;28;20029;-68
2021/04/02 02:34:46;;;;;;;34.97;21.65;;;;;;;;;;5048477;28;20356;-68
2021/04/02 02:37:12;;;;;;;34.85;22.13;;;;;;;;;;5015459;28;20025;-68
2021/04/02 02:39:50;;;;;;;31.50;21.20;;;;;;;;;;5048525;28;20059;-68
2021/04/02 02:42:17;;;;;;;28.27;17.67;;;;;;;;;;5015445;28;20030;-68
2021/04/02 02:44:43;;;;;;;24.15;17.20;;;;;;;;;;5033148;28;20037;-68
2021/04/02 02:47:09;;;;;;;27.42;18.73;;;;;;;;;;5015420;28;20389;-68
2021/04/02 02:49:43;;;;;;;18.73;14.35;;;;;;;;;;5015450;28;20063;-68
2021/04/02 02:52:11;;;;;;;14.10;12.02;;;;;;;;;;5031461;28;20025;-68
2021/04/02 02:54:37;;;;;;;12.88;10.00;;;;;;;;;;4998719;28;20022;-68
2021/04/02 02:57:04;;;;;;;11.48;8.95;;;;;;;;;;5048290;28;20473;-68
2021/04/02 02:59:32;;;;;;;8.50;7.60;;;;;;;;;;5048353;28;20855;-68
2021/04/02 03:02:03;;;;;;;7.75;6.95;;;;;;;;;;5015392;28;20034;-68
2021/04/02 03:04:29;;;;;;;6.70;6.00;;;;;;;;;;4998909;28;20116;-68
2021/04/02 03:06:59;;;;;;;7.53;6.03;;;;;;;;;;5015306;28;20037;-68
2021/04/02 03:09:27;;;;;;;7.78;6.70;;;;;;;;;;5031598;28;20037;-68
2021/04/02 03:11:53;;;;;;;7.57;6.88;;;;;;;;;;5015042;28;20478;-68
2021/04/02 03:14:20;;;;;;;9.40;6.70;;;;;;;;;;5032693;28;20508;-68
2021/04/02 03:16:47;;;;;;;7.68;6.07;;;;;;;;;;5032877;28;20025;-68
2021/04/02 03:19:16;;;;;;;7.68;6.22;;;;;;;;;;5047509;28;20021;-68
2021/04/02 03:21:44;;;;;;;8.00;6.53;;;;;;;;;;5013864;28;20516;-69
2021/04/02 03:24:19;;;;;;;7.15;6.05;;;;;;;;;;5015054;28;20477;-68
2021/04/02 03:26:49;;;;;;;7.78;6.18;;;;;;;;;;5014974;28;20029;-68
2021/04/02 03:29:15;;;;;;;6.68;5.93;;;;;;;;;;5016494;28;20116;-68
2021/04/02 03:31:43;;;;;;;5.60;5.00;;;;;;;;;;5018712;28;20480;-68
2021/04/02 03:34:11;;;;;;;6.22;5.63;;;;;;;;;;5018559;28;20057;-68
2021/04/02 03:36:39;;;;;;;6.15;5.30;;;;;;;;;;5018272;28;20159;-68
2021/04/02 03:39:15;;;;;;;5.47;4.97;;;;;;;;;;5034043;28;20014;-68
2021/04/02 03:41:42;;;;;;;5.97;5.03;;;;;;;;;;5018710;28;20049;-68
2021/04/02 03:44:12;;;;;;;4.57;4.15;;;;;;;;;;5018511;28;20064;-68
2021/04/02 03:46:39;;;;;;;4.40;4.00;;;;;;;;;;5018419;28;20037;-68
2021/04/02 03:49:06;;;;;;;4.43;4.13;;;;;;;;;;5018424;28;20018;-68
2021/04/02 03:51:38;;;;;;;4.47;4.13;;;;;;;;;;5018386;28;20076;-68
2021/04/02 03:54:06;;;;;;;5.05;4.22;;;;;;;;;;5018197;28;20412;-68
2021/04/02 03:56:35;;;;;;;4.28;3.88;;;;;;;;;;5035924;28;20024;-68
2021/04/02 03:59:02;;;;;;;5.05;4.55;;;;;;;;;;5018245;28;20100;-68
2021/04/02 04:01:34;;;;;;;4.32;3.92;;;;;;;;;;5018039;28;20442;-68
2021/04/02 04:04:03;;;;;;;4.68;4.28;;;;;;;;;;5018067;28;20473;-68
2021/04/02 04:06:34;;;;;;;4.80;4.35;;;;;;;;;;5018194;28;20048;-68
2021/04/02 04:09:01;;;;;;;3.45;3.15;;;;;;;;;;5018065;28;20037;-68
2021/04/02 04:11:31;;;;;;;2.95;2.75;;;;;;;;;;5017986;28;20030;-68
2021/04/02 04:13:58;;;;;;;3.00;2.80;;;;;;;;;;5017759;28;20459;-68
2021/04/02 04:16:25;;;;;;;3.17;2.75;;;;;;;;;;5018040;28;20026;-68
2021/04/02 04:18:58;;;;;;;2.78;2.58;;;;;;;;;;5017988;28;20417;-68
2021/04/02 04:21:31;;;;;;;3.67;2.85;;;;;;;;;;5017537;28;20133;-68
2021/04/02 04:24:00;;;;;;;2.92;2.80;;;;;;;;;;5017925;28;20029;-68
2021/04/02 04:26:27;;;;;;;2.92;2.78;;;;;;;;;;5035278;28;20041;-68
2021/04/02 04:28:53;;;;;;;3.10;2.90;;;;;;;;;;5017836;28;20041;-69
2021/04/02 04:31:19;;;;;;;2.58;2.47;;;;;;;;;;5035264;28;20014;-68
2021/04/02 04:33:46;;;;;;;2.72;2.58;;;;;;;;;;5034699;28;20029;-68
2021/04/02 04:36:13;;;;;;;2.58;2.47;;;;;;;;;;5017554;28;20021;-68
2021/04/02 04:38:40;;;;;;;2.40;2.30;;;;;;;;;;5050516;28;20151;-68
2021/04/02 04:41:06;;;;;;;2.30;2.20;;;;;;;;;;5035173;28;20117;-68
2021/04/02 04:43:32;;;;;;;3.85;3.55;;;;;;;;;;5035225;28;20034;-68
2021/04/02 04:45:58;;;;;;;2.15;2.05;;;;;;;;;;5034998;28;20048;-68
2021/04/02 04:48:23;;;;;;;3.88;3.67;;;;;;;;;;5034952;28;20083;-68
2021/04/02 04:50:49;;;;;;;3.15;2.95;;;;;;;;;;5017123;28;20470;-68
2021/04/02 04:53:20;;;;;;;3.55;3.30;;;;;;;;;;5034860;28;20535;-68
2021/04/02 04:55:46;;;;;;;3.50;3.38;;;;;;;;;;5017448;28;20029;-68
2021/04/02 04:58:13;;;;;;;4.10;3.80;;;;;;;;;;5017187;28;20036;-68
2021/04/02 05:00:41;;;;;;;3.60;3.40;;;;;;;;;;5034829;28;20458;-68
2021/04/02 05:03:07;;;;;;;5.20;4.90;;;;;;;;;;5016898;28;20021;-68
2021/04/02 05:05:33;;;;;;;3.95;3.72;;;;;;;;;;5034706;28;20031;-68
2021/04/02 05:08:01;;;;;;;2.58;2.38;;;;;;;;;;5017012;28;20033;-68
2021/04/02 05:10:27;;;;;;;3.63;3.33;;;;;;;;;;5016925;28;20055;-68
2021/04/02 05:12:53;;;;;;;4.40;4.10;;;;;;;;;;5034533;28;20040;-68
2021/04/02 05:15:20;;;;;;;5.53;5.10;;;;;;;;;;5034460;28;20058;-68
2021/04/02 05:17:46;;;;;;;5.47;5.07;;;;;;;;;;5016989;28;20070;-68
2021/04/02 05:20:12;;;;;;;6.80;6.30;;;;;;;;;;5033898;28;20045;-69
2021/04/02 05:22:37;;;;;;;5.40;5.10;;;;;;;;;;5034634;28;20052;-68
2021/04/02 05:25:06;;;;;;;5.53;5.15;;;;;;;;;;5034251;28;20029;-68
2021/04/02 05:27:32;;;;;;;5.10;4.85;;;;;;;;;;5034290;28;20512;-69
2021/04/02 05:29:58;;;;;;;7.18;6.78;;;;;;;;;;5033981;28;20034;-69
2021/04/02 05:32:23;;;;;;;5.90;5.47;;;;;;;;;;5034295;28;20057;-68
2021/04/02 05:34:49;;;;;;;7.13;6.63;;;;;;;;;;5034048;28;20049;-68
2021/04/02 05:37:14;;;;;;;5.57;5.28;;;;;;;;;;5016457;28;20025;-68
2021/04/02 05:39:40;;;;;;;8.05;7.55;;;;;;;;;;5033954;28;20516;-68
2021/04/02 05:42:06;;;;;;;10.55;9.65;;;;;;;;;;5033997;28;20017;-68
2021/04/02 05:44:33;;;;;;;5.80;5.50;;;;;;;;;;5016406;28;20481;-68
2021/04/02 05:47:00;;;;;;;5.20;4.90;;;;;;;;;;5033848;28;20017;-68
2021/04/02 05:49:25;;;;;;;5.38;5.07;;;;;;;;;;5033737;28;20037;-68
2021/04/02 05:51:51;;;;;;;5.50;5.10;;;;;;;;;;5033294;28;20120;-69
2021/04/02 05:54:23;;;;;;;4.90;4.60;;;;;;;;;;5048954;28;20363;-68
2021/04/02 05:56:51;;;;;;;5.18;4.88;;;;;;;;;;5033701;28;20022;-68
2021/04/02 05:59:16;;;;;;;6.65;6.25;;;;;;;;;;5033837;28;20100;-68
2021/04/02 06:01:42;;;;;;;5.30;5.00;;;;;;;;;;5033860;28;20099;-68
2021/04/02 06:04:07;;;;;;;5.07;4.78;;;;;;;;;;5033740;28;20412;-68
2021/04/02 06:06:33;;;;;;;4.35;4.15;;;;;;;;;;5033625;28;20477;-68
2021/04/02 06:08:59;;;;;;;4.10;3.70;;;;;;;;;;5033433;28;20052;-68
2021/04/02 06:11:24;;;;;;;4.45;4.22;;;;;;;;;;5033451;28;20029;-68
2021/04/02 06:13:50;;;;;;;4.03;3.83;;;;;;;;;;5033508;28;20024;-68
2021/04/02 06:16:15;;;;;;;4.30;4.10;;;;;;;;;;5033451;28;20429;-68
2021/04/02 06:18:41;;;;;;;4.60;4.35;;;;;;;;;;5015804;28;20051;-68
2021/04/02 06:21:08;;;;;;;5.40;4.97;;;;;;;;;;5015436;28;20234;-68
2021/04/02 06:23:35;;;;;;;7.68;6.90;;;;;;;;;;5033015;28;20048;-69
2021/04/02 06:26:02;;;;;;;6.50;6.00;;;;;;;;;;5048661;28;20084;-68
2021/04/02 06:28:27;;;;;;;12.20;9.90;;;;;;;;;;5033234;28;20033;-68
2021/04/02 06:31:02;;;;;;;9.02;8.32;;;;;;;;;;5033101;28;20041;-68
2021/04/02 06:33:34;;;;;;;9.35;8.55;;;;;;;;;;5048274;28;20056;-68
2021/04/02 06:35:59;;;;;;;49.10;38.13;;;;;;;;;;5033086;28;20417;-68
2021/04/02 06:38:32;;;;;;;22.92;20.08;;;;;;;;;;5033041;28;20021;-68
2021/04/02 06:40:58;;;;;;;9.25;8.45;;;;;;;;;;5033159;28;20036;-68
2021/04/02 06:43:32;;;;;;;7.32;6.72;;;;;;;;;;5033110;28;20025;-68
2021/04/02 06:46:02;;;;;;;4.15;3.95;;;;;;;;;;5033157;28;20033;-68
2021/04/02 06:48:28;;;;;;;4.03;3.83;;;;;;;;;;5033092;28;20034;-68
2021/04/02 06:50:55;;;;;;;4.25;3.85;;;;;;;;;;5032983;28;20155;-68
2021/04/02 06:53:21;;;;;;;4.57;4.18;;;;;;;;;;5032866;28;20520;-69
2021/04/02 06:55:47;;;;;;;5.82;4.05;;;;;;;;;;5033088;28;20052;-69
2021/04/02 06:58:13;;;;;;;5.05;4.65;;;;;;;;;;5015210;28;20026;-68
2021/04/02 07:00:39;;;;;;;269.77;169.52;;;;;;;;;;5032979;28;20047;-68
2021/04/02 07:03:06;;;;;;;330.95;224.20;;;;;;;;;;5032876;28;20431;-68
2021/04/02 07:05:32;;;;;;;810.45;554.67;;;;;;;;;;5036424;28;20017;-68
2021/04/02 07:08:00;;;;;;;520.67;329.15;;;;;;;;;;5019333;28;20553;-68
2021/04/02 07:10:26;;;;;;;545.30;315.63;;;;;;;;;;5036828;28;20185;-68
2021/04/02 07:12:52;;;;;;;259.02;137.25;;;;;;;;;;5036793;28;20036;-68
2021/04/02 07:15:18;;;;;;;228.90;168.27;;;;;;;;;;5002707;28;20029;-68
2021/04/02 07:17:44;;;;;;;235.15;171.23;;;;;;;;;;5036479;28;20481;-69
2021/04/02 07:20:10;;;;;;;253.98;202.13;;;;;;;;;;5036212;28;20072;-68
2021/04/02 07:22:37;;;;;;;121.32;107.97;;;;;;;;;;5036653;28;20029;-69
2021/04/02 07:25:03;;;;;;;161.15;128.70;;;;;;;;;;5036653;28;20025;-68
2021/04/02 07:27:29;;;;;;;25.02;22.42;;;;;;;;;;5036468;28;20032;-69
2021/04/02 07:29:54;;;;;;;15.30;13.95;;;;;;;;;;5036485;28;20025;-68
2021/04/02 07:32:21;;;;;;;55.50;35.20;;;;;;;;;;5036582;28;20025;-68
2021/04/02 07:34:46;;;;;;;106.15;74.28;;;;;;;;;;5051578;28;20381;-68
2021/04/02 07:37:12;;;;;;;852.13;525.28;;;;;;;;;;5051668;28;20409;-68
2021/04/02 07:39:37;;;;;;;1392.05;720.60;;;;;;;;;;5036167;28;20060;-69
2021/04/02 07:42:03;;;;;;;553.72;280.92;;;;;;;;;;5036347;28;20112;-69
2021/04/02 07:44:35;;;;;;;1394.60;685.38;;;;;;;;;;5036249;28;20032;-68
2021/04/02 07:47:00;;;;;;;1999.90;890.08;;;;;;;;;;5036232;28;20116;-68
2021/04/02 07:49:28;;;;;;;1104.35;504.95;;;;;;;;;;5051564;28;20112;-68
2021/04/02 07:51:54;;;;;;;992.58;465.60;;;;;;;;;;5036087;28;20029;-68
2021/04/02 07:54:20;;;;;;;138.73;64.65;;;;;;;;;;5035919;28;20473;-68
2021/04/02 07:56:46;;;;;;;6.55;6.05;;;;;;;;;;5036062;28;20025;-68
2021/04/02 07:59:12;;;;;;;6.05;5.45;;;;;;;;;;5018278;28;20049;-68
2021/04/02 08:01:37;;;;;;;8.55;7.68;;;;;;;;;;5035918;28;20503;-68
2021/04/02 08:04:04;;;;;;;5.63;5.32;;;;;;;;;;5035920;28;20076;-68
2021/04/02 08:06:32;;;;;;;6.25;5.85;;;;;;;;;;5035733;28;20051;-68
2021/04/02 08:08:58;;;;;;;5.30;4.90;;;;;;;;;;5035628;28;20033;-68
2021/04/02 08:11:26;;;;;;;5.35;5.05;;;;;;;;;;5051054;28;20025;-68
2021/04/02 08:13:58;;;;;;;5.90;5.50;;;;;;;;;;5035218;28;20061;-68
2021/04/02 08:16:27;;;;;;;7.45;6.75;;;;;;;;;;5017679;28;20048;-68
2021/04/02 08:18:59;;;;;;;4.82;4.53;;;;;;;;;;5035591;28;20072;-68
2021/04/02 08:21:26;;;;;;;4.85;4.43;;;;;;;;;;5035467;28;20046;-68
2021/04/02 08:23:52;;;;;;;5.78;5.47;;;;;;;;;;5035511;28;20038;-68
2021/04/02 08:26:17;;;;;;;5.07;4.78;;;;;;;;;;5035442;28;20037;-68
2021/04/02 08:28:44;;;;;;;11.43;10.45;;;;;;;;;;5035446;28;20022;-68
2021/04/02 08:31:09;;;;;;;18.65;13.82;;;;;;;;;;5035399;28;20040;-68
2021/04/02 08:33:35;;;;;;;5.80;5.30;;;;;;;;;;5035248;28;20021;-68
2021/04/02 08:36:01;;;;;;;90.65;57.83;;;;;;;;;;5017622;28;20055;-68
2021/04/02 08:38:29;;;;;;;51.97;32.58;;;;;;;;;;5017446;28;20022;-69
2021/04/02 08:41:13;;;;;;;6.30;5.75;;;;;;;;;;5035125;28;20029;-68
2021/04/02 08:43:40;;;;;;;5.10;4.80;;;;;;;;;;5017721;28;20056;-68
2021/04/02 08:46:06;;;;;;;4.70;4.40;;;;;;;;;;5035216;28;20108;-68
2021/04/02 08:48:32;;;;;;;4.57;4.22;;;;;;;;;;5035246;28;20068;-68
2021/04/02 08:50:57;;;;;;;4.13;3.92;;;;;;;;;;5035003;28;20061;-68
2021/04/02 08:53:23;;;;;;;14.05;12.95;;;;;;;;;;5034892;28;20056;-68
2021/04/02 08:55:48;;;;;;;4.80;4.50;;;;;;;;;;5034856;28;20079;-68
2021/04/02 08:58:14;;;;;;;4.90;4.60;;;;;;;;;;5034733;28;20029;-68
2021/04/02 09:00:40;;;;;;;6.05;4.45;;;;;;;;;;5034745;28;20035;-68
2021/04/02 09:03:06;;;;;;;4.05;3.75;;;;;;;;;;5034852;28;20148;-68
2021/04/02 09:05:31;;;;;;;4.25;3.95;;;;;;;;;;5034756;28;20469;-68
2021/04/02 09:07:58;;;;;;;3.85;3.58;;;;;;;;;;5034733;28;20040;-68
2021/04/02 09:10:24;;;;;;;4.80;4.50;;;;;;;;;;5016701;28;20041;-68
2021/04/02 09:12:50;;;;;;;3.78;3.58;;;;;;;;;;5034754;28;20162;-68
2021/04/02 09:15:20;;;;;;;3.30;3.10;;;;;;;;;;5034573;28;20032;-68
2021/04/02 09:17:46;;;;;;;3.00;2.80;;;;;;;;;;5034483;28;20052;-68
2021/04/02 09:20:12;;;;;;;4.43;2.83;;;;;;;;;;5016285;28;20092;-68
2021/04/02 09:22:38;;;;;;;93.47;57.47;;;;;;;;;;5000466;28;20037;-68
2021/04/02 09:25:04;;;;;;;17.13;11.07;;;;;;;;;;5034491;28;20032;-68
2021/04/02 09:27:37;;;;;;;156.38;94.05;;;;;;;;;;5048727;28;20099;-68
2021/04/02 09:30:05;;;;;;;4.80;3.00;;;;;;;;;;5034306;28;20022;-68
2021/04/02 09:32:32;;;;;;;4.30;4.00;;;;;;;;;;5034144;28;20075;-68
2021/04/02 09:35:01;;;;;;;48.47;38.03;;;;;;;;;;5034057;28;20041;-68
2021/04/02 09:37:28;;;;;;;3.50;3.27;;;;;;;;;;5049486;28;20060;-68
2021/04/02 09:40:03;;;;;;;5.53;5.20;;;;;;;;;;5034250;28;20013;-68
2021/04/02 09:42:30;;;;;;;3.00;2.90;;;;;;;;;;5033954;28;20025;-68
2021/04/02 09:45:00;;;;;;;3.05;2.80;;;;;;;;;;5034029;28;20048;-69
2021/04/02 09:47:26;;;;;;;2.88;2.78;;;;;;;;;;5033948;28;20490;-68
2021/04/02 09:49:51;;;;;;;2.90;2.72;;;;;;;;;;5034037;28;20059;-68
2021/04/02 09:52:17;;;;;;;3.17;2.97;;;;;;;;;;5033876;28;20489;-68
2021/04/02 09:54:42;;;;;;;2.75;2.60;;;;;;;;;;5016255;28;20100;-68
2021/04/02 09:57:08;;;;;;;2.88;2.72;;;;;;;;;;5015968;28;20477;-68
2021/04/02 09:59:35;;;;;;;2.75;2.55;;;;;;;;;;5015953;28;20025;-68
2021/04/02 10:02:00;;;;;;;2.97;2.78;;;;;;;;;;5033737;28;20029;-68
2021/04/02 10:04:26;;;;;;;3.00;2.80;;;;;;;;;;5033183;28;20423;-68
2021/04/02 10:06:52;;;;;;;2.97;2.78;;;;;;;;;;5033575;28;20037;-68
2021/04/02 10:09:17;;;;;;;3.05;2.85;;;;;;;;;;5033544;28;20030;-69
2021/04/02 10:11:45;;;;;;;4.15;3.78;;;;;;;;;;5033382;28;20025;-68
2021/04/02 10:14:10;;;;;;;3.75;3.53;;;;;;;;;;5033308;28;20022;-68
2021/04/02 10:16:36;;;;;;;10.90;7.68;;;;;;;;;;5033487;28;20029;-68
2021/04/02 10:19:02;;;;;;;328.83;170.15;;;;;;;;;;5033419;28;20021;-68
2021/04/02 10:21:29;;;;;;;40.70;18.80;;;;;;;;;;5033224;28;20448;-68
2021/04/02 10:23:54;;;;;;;1016.50;512.33;;;;;;;;;;5033318;28;20043;-68
2021/04/02 10:26:20;;;;;;;861.13;432.88;;;;;;;;;;5048715;28;20029;-68
2021/04/02 10:28:46;;;;;;;7.05;6.35;;;;;;;;;;5033286;28;20051;-68
2021/04/02 10:31:12;;;;;;;670.75;368.35;;;;;;;;;;5033239;28;20036;-68
2021/04/02 10:33:38;;;;;;;969.35;527.63;;;;;;;;;;5033014;28;20030;-68
2021/04/02 10:36:04;;;;;;;81.43;40.97;;;;;;;;;;5033042;28;20029;-68
2021/04/02 10:38:29;;;;;;;7.03;5.32;;;;;;;;;;5015333;28;20021;-68
2021/04/02 10:40:55;;;;;;;24.08;5.80;;;;;;;;;;5033103;28;20068;-68
2021/04/02 10:43:21;;;;;;;181.32;70.57;;;;;;;;;;4999002;28;20079;-69
2021/04/02 10:45:47;;;;;;;32.70;17.75;;;;;;;;;;5033015;28;20139;-68
2021/04/02 10:48:12;;;;;;;9.90;6.05;;;;;;;;;;5048370;28;20049;-68
2021/04/02 10:50:39;;;;;;;4.22;3.90;;;;;;;;;;5015225;28;20033;-68
2021/04/02 10:53:05;;;;;;;52.72;25.77;;;;;;;;;;5015516;28;20017;-68
2021/04/02 10:55:31;;;;;;;4.43;3.88;;;;;;;;;;5033017;28;20441;-68
2021/04/02 10:57:56;;;;;;;3.05;2.85;;;;;;;;;;5015211;28;20022;-68
2021/04/02 11:00:23;;;;;;;3.33;3.13;;;;;;;;;;5015027;28;20048;-69
2021/04/02 11:02:49;;;;;;;74.18;41.95;;;;;;;;;;5015255;28;20037;-68
2021/04/02 11:05:14;;;;;;;10.40;8.07;;;;;;;;;;5032868;28;20079;-69
2021/04/02 11:07:40;;;;;;;5.05;4.55;;;;;;;;;;5032870;28;20420;-69
2021/04/02 11:10:07;;;;;;;3.25;3.05;;;;;;;;;;5032733;28;20030;-69
2021/04/02 11:12:32;;;;;;;8.77;6.25;;;;;;;;;;5032881;28;20488;-68
2021/04/02 11:14:58;;;;;;;8.25;5.90;;;;;;;;;;5032746;28;20037;-69
2021/04/02 11:17:24;;;;;;;19.45;14.65;;;;;;;;;;5015086;28;20021;-69
2021/04/02 11:19:50;;;;;;;4.78;4.45;;;;;;;;;;5032416;28;20041;-69
2021/04/02 11:22:16;;;;;;;21.95;15.25;;;;;;;;;;5032875;28;20083;-69
2021/04/02 11:24:41;;;;;;;3.90;3.60;;;;;;;;;;5032733;28;20053;-69
2021/04/02 11:27:07;;;;;;;8.00;4.88;;;;;;;;;;5048151;28;20033;-69
2021/04/02 11:29:32;;;;;;;3.67;3.38;;;;;;;;;;5032794;28;20021;-69
2021/04/02 11:31:59;;;;;;;3.50;3.20;;;;;;;;;;5032516;28;20539;-69
2021/04/02 11:34:25;;;;;;;3.42;3.13;;;;;;;;;;5032407;28;20061;-68
2021/04/02 11:36:51;;;;;;;3.55;3.28;;;;;;;;;;5032546;28;20068;-69
2021/04/02 11:39:16;;;;;;;7.15;5.47;;;;;;;;;;5014751;28;20060;-69
2021/04/02 11:41:42;;;;;;;4.57;3.50;;;;;;;;;;5032537;28;20525;-69
2021/04/02 11:44:07;;;;;;;4.95;4.10;;;;;;;;;;5032578;28;20104;-69
2021/04/02 11:46:32;;;;;;;3.33;3.13;;;;;;;;;;5032726;28;20440;-69
2021/04/02 11:48:58;;;;;;;5.65;3.55;;;;;;;;;;5032631;28;20116;-68
2021/04/02 11:51:24;;;;;;;3.50;3.22;;;;;;;;;;5035495;28;20061;-69
2021/04/02 11:53:49;;;;;;;3.30;3.10;;;;;;;;;;5035974;28;20041;-69
2021/04/02 11:56:15;;;;;;;3.45;3.00;;;;;;;;;;5051182;28;20436;-69
2021/04/02 11:58:40;;;;;;;3.72;3.45;;;;;;;;;;5035924;28;20040;-68
2021/04/02 12:01:06;;;;;;;2.92;2.72;;;;;;;;;;5035872;28;20025;-69
2021/04/02 12:03:31;;;;;;;3.33;3.03;;;;;;;;;;5035981;28;20021;-68
2021/04/02 12:05:56;;;;;;;4.00;2.80;;;;;;;;;;5018319;28;20045;-69
2021/04/02 12:08:22;;;;;;;2.63;2.42;;;;;;;;;;5035847;28;20040;-68
2021/04/02 12:10:48;;;;;;;2.75;2.55;;;;;;;;;;5051093;28;20474;-69
2021/04/02 12:13:13;;;;;;;5.55;3.30;;;;;;;;;;5018080;28;20025;-69
2021/04/02 12:15:39;;;;;;;5.15;3.63;;;;;;;;;;5035832;28;20474;-69
2021/04/02 12:18:05;;;;;;;2.53;2.33;;;;;;;;;;5035736;28;20021;-69
2021/04/02 12:20:31;;;;;;;2.40;2.30;;;;;;;;;;5035264;28;20063;-69
2021/04/02 12:22:57;;;;;;;2.70;2.50;;;;;;;;;;5035632;28;20018;-69
2021/04/02 12:25:22;;;;;;;2.70;2.15;;;;;;;;;;5018030;28;20040;-69
2021/04/02 12:27:47;;;;;;;2.20;2.10;;;;;;;;;;5035433;28;20477;-68
2021/04/02 12:30:14;;;;;;;2.50;2.30;;;;;;;;;;5035307;28;20461;-69
2021/04/02 12:32:40;;;;;;;5.25;3.17;;;;;;;;;;5035595;28;20503;-69
2021/04/02 12:35:06;;;;;;;3.22;2.92;;;;;;;;;;5034054;28;20100;-68
2021/04/02 12:37:32;;;;;;;2.33;2.22;;;;;;;;;;5035359;28;20025;-69
2021/04/02 12:39:59;;;;;;;2.78;2.58;;;;;;;;;;5035256;28;20021;-68
2021/04/02 12:42:25;;;;;;;2.70;2.50;;;;;;;;;;5035346;28;20037;-69
2021/04/02 12:44:51;;;;;;;3.17;2.50;;;;;;;;;;5035144;28;20025;-69
2021/04/02 12:47:16;;;;;;;2.85;2.40;;;;;;;;;;5017481;28;20061;-68
2021/04/02 12:49:41;;;;;;;3.85;3.30;;;;;;;;;;5050165;28;20421;-69
2021/04/02 12:52:07;;;;;;;3.47;3.20;;;;;;;;;;5017392;28;20029;-68
2021/04/02 12:54:33;;;;;;;3.70;2.70;;;;;;;;;;5034974;28;20381;-69
2021/04/02 12:56:58;;;;;;;3.95;3.30;;;;;;;;;;5034796;28;20025;-68
2021/04/02 12:59:24;;;;;;;3.10;2.90;;;;;;;;;;5034903;28;20021;-68
2021/04/02 13:01:49;;;;;;;3.17;2.95;;;;;;;;;;5015956;28;20052;-69
2021/04/02 13:04:15;;;;;;;2.70;2.50;;;;;;;;;;5034727;28;20151;-69
2021/04/02 13:06:40;;;;;;;2.67;2.47;;;;;;;;;;5034826;28;20029;-68
2021/04/02 13:09:06;;;;;;;2.65;2.45;;;;;;;;;;5034760;28;20413;-68
2021/04/02 13:11:31;;;;;;;2.20;2.00;;;;;;;;;;5034686;28;20025;-68
2021/04/02 13:13:57;;;;;;;3.30;3.00;;;;;;;;;;5034696;28;20059;-69
2021/04/02 13:16:23;;;;;;;2.40;2.30;;;;;;;;;;5016824;28;20026;-68
2021/04/02 13:18:48;;;;;;;3.35;2.78;;;;;;;;;;5034442;28;20129;-69
2021/04/02 13:21:14;;;;;;;2.60;2.38;;;;;;;;;;5016647;28;20049;-69
2021/04/02 13:23:40;;;;;;;2.95;2.75;;;;;;;;;;5034446;28;20075;-69
2021/04/02 13:26:05;;;;;;;2.47;2.28;;;;;;;;;;5034364;28;20444;-69
2021/04/02 13:28:31;;;;;;;2.53;2.33;;;;;;;;;;5034365;28;20026;-69
2021/04/02 13:30:56;;;;;;;4.35;3.80;;;;;;;;;;5034484;28;20029;-69
2021/04/02 13:33:22;;;;;;;3.85;3.28;;;;;;;;;;5034184;28;20496;-69
2021/04/02 13:35:47;;;;;;;3.90;3.60;;;;;;;;;;5034130;28;20033;-69
2021/04/02 13:38:14;;;;;;;5.30;4.80;;;;;;;;;;5034101;28;20465;-69
2021/04/02 13:40:39;;;;;;;3.45;3.17;;;;;;;;;;5034045;28;20029;-69
2021/04/02 13:43:05;;;;;;;3.30;3.00;;;;;;;;;;5033645;28;20080;-69
2021/04/02 13:45:30;;;;;;;2.97;2.70;;;;;;;;;;5034018;28;20033;-69
2021/04/02 13:47:56;;;;;;;3.50;3.20;;;;;;;;;;5016185;28;20044;-69
2021/04/02 13:50:23;;;;;;;3.10;2.90;;;;;;;;;;5033867;28;20025;-69
2021/04/02 13:52:50;;;;;;;3.10;2.83;;;;;;;;;;5016234;28;20022;-69
2021/04/02 13:55:16;;;;;;;3.35;3.05;;;;;;;;;;5033789;28;20056;-69
2021/04/02 13:57:42;;;;;;;3.55;3.10;;;;;;;;;;5033770;28;20055;-69
2021/04/02 14:00:10;;;;;;;2.55;2.40;;;;;;;;;;5033774;28;20037;-69
2021/04/02 14:02:43;;;;;;;3.60;3.30;;;;;;;;;;5033800;28;20022;-69
2021/04/02 14:05:11;;;;;;;3.60;3.30;;;;;;;;;;5016121;28;20052;-69
2021/04/02 14:07:37;;;;;;;3.08;2.88;;;;;;;;;;5016128;28;20025;-69
2021/04/02 14:10:05;;;;;;;6.53;5.88;;;;;;;;;;5033657;28;20420;-69
2021/04/02 14:12:30;;;;;;;3.85;3.47;;;;;;;;;;5033104;28;20018;-69
2021/04/02 14:14:56;;;;;;;3.30;3.00;;;;;;;;;;5015646;28;20425;-69
2021/04/02 14:17:21;;;;;;;2.83;2.63;;;;;;;;;;5033391;28;20024;-69
2021/04/02 14:19:47;;;;;;;3.15;2.72;;;;;;;;;;5033079;28;20456;-69
2021/04/02 14:22:12;;;;;;;3.53;3.33;;;;;;;;;;5033528;28;20029;-69
2021/04/02 14:24:39;;;;;;;4.45;4.05;;;;;;;;;;5048683;28;20051;-68
2021/04/02 14:27:05;;;;;;;4.97;4.53;;;;;;;;;;5015729;28;20021;-69
2021/04/02 14:29:31;;;;;;;3.28;3.05;;;;;;;;;;5033321;28;20032;-69
2021/04/02 14:31:57;;;;;;;3.35;3.15;;;;;;;;;;5033368;28;20037;-69